createdAt,value
2023-04-21T00:02:18.385Z,16.77
2023-04-21T00:04:47.519Z,15.43
2023-04-21T00:07:16.606Z,15.93
2023-04-21T00:09:43.459Z,13.37
2023-04-21T00:12:15.290Z,12.47
2023-04-21T00:14:42.052Z,10.27
2023-04-21T00:17:08.791Z,13.67
2023-04-21T00:19:37.841Z,15.37
2023-04-21T00:22:04.710Z,11.50
2023-04-21T00:24:31.454Z,14.10
2023-04-21T00:26:58.213Z,14.50
2023-04-21T00:29:25.066Z,11.00
2023-04-21T00:31:54.383Z,9.77
2023-04-21T00:34:23.319Z,11.47
2023-04-21T00:36:50.071Z,11.33
2023-04-21T00:39:16.942Z,12.47
2023-04-21T00:41:43.903Z,13.77
2023-04-21T00:44:10.734Z,15.00
2023-04-21T00:46:38.600Z,12.73
2023-04-21T00:49:08.150Z,10.80
2023-04-21T00:51:35.991Z,15.30
2023-04-21T00:54:06.692Z,14.10
2023-04-21T00:56:34.637Z,12.20
2023-04-21T00:59:03.893Z,14.97
2023-04-21T01:01:31.614Z,15.43
2023-04-21T01:03:59.578Z,11.13
2023-04-21T01:06:32.214Z,18.13
2023-04-21T01:08:59.065Z,11.80
2023-04-21T01:11:26.424Z,12.47
2023-04-21T01:13:56.779Z,13.37
2023-04-21T01:16:24.138Z,11.97
2023-04-21T01:18:53.474Z,9.83
2023-04-21T01:21:21.876Z,12.17
2023-04-21T01:23:50.931Z,12.43
2023-04-21T01:26:21.389Z,11.27
2023-04-21T01:28:50.319Z,15.23
2023-04-21T01:31:17.306Z,12.03
2023-04-21T01:33:44.755Z,11.00
2023-04-21T01:36:13.648Z,13.30
2023-04-21T01:38:43.265Z,12.63
2023-04-21T01:41:10.861Z,14.10
2023-04-21T01:43:37.831Z,14.90
2023-04-21T01:46:07.446Z,10.13
2023-04-21T01:48:36.412Z,13.67
2023-04-21T01:51:03.166Z,14.27
2023-04-21T01:53:29.991Z,12.03
2023-04-21T01:55:59.310Z,15.17
2023-04-21T01:58:28.225Z,11.70
2023-04-21T02:00:54.992Z,11.83
2023-04-21T02:03:21.879Z,11.63
2023-04-21T02:05:50.769Z,11.03
2023-04-21T02:08:17.896Z,15.57
2023-04-21T02:10:49.418Z,11.67
2023-04-21T02:13:18.289Z,12.23
2023-04-21T02:15:45.130Z,13.10
2023-04-21T02:18:11.943Z,10.53
2023-04-21T02:20:38.822Z,13.17
2023-04-21T02:23:05.637Z,13.30
2023-04-21T02:25:34.848Z,11.93
2023-04-21T02:28:01.603Z,12.67
2023-04-21T02:30:28.348Z,11.63
2023-04-21T02:32:55.202Z,10.40
2023-04-21T02:35:24.246Z,11.40
2023-04-21T02:37:51.008Z,17.03
2023-04-21T02:40:21.234Z,15.63
2023-04-21T02:42:48.009Z,12.80
2023-04-21T02:45:14.808Z,13.30
2023-04-21T02:47:41.575Z,12.27
2023-04-21T02:50:10.988Z,15.63
2023-04-21T02:52:40.518Z,11.23
2023-04-21T02:55:07.559Z,12.77
2023-04-21T02:57:34.343Z,14.93
2023-04-21T03:00:01.120Z,10.63
2023-04-21T03:02:27.991Z,14.33
2023-04-21T03:04:54.849Z,13.97
2023-04-21T03:07:21.714Z,13.83
2023-04-21T03:09:51.216Z,12.57
2023-04-21T03:12:17.962Z,13.13
2023-04-21T03:14:49.810Z,10.37
2023-04-21T03:17:16.574Z,13.00
2023-04-21T03:19:48.190Z,14.10
2023-04-21T03:22:15.024Z,13.30
2023-04-21T03:24:48.799Z,10.03
2023-04-21T03:27:15.538Z,11.73
2023-04-21T03:29:42.308Z,14.13
2023-04-21T03:32:09.087Z,11.30
2023-04-21T03:34:38.378Z,11.17
2023-04-21T03:37:05.311Z,9.77
2023-04-21T03:39:34.356Z,11.23
2023-04-21T03:42:01.513Z,15.60
2023-04-21T03:44:28.856Z,9.70
2023-04-21T03:46:55.737Z,13.00
2023-04-21T03:49:24.750Z,12.07
2023-04-21T03:51:52.593Z,10.87
2023-04-21T03:54:19.367Z,18.33
2023-04-21T03:56:46.226Z,10.97
2023-04-21T03:59:12.987Z,11.57
2023-04-21T04:01:39.793Z,9.00
2023-04-21T04:04:06.713Z,12.40
2023-04-21T04:06:34.132Z,11.93
2023-04-21T04:09:04.518Z,10.33
2023-04-21T04:11:31.976Z,13.10
2023-04-21T04:13:59.170Z,20.97
2023-04-21T04:16:26.046Z,12.47
2023-04-21T04:18:53.452Z,10.33
2023-04-21T04:21:20.480Z,9.50
2023-04-21T04:23:47.215Z,11.00
2023-04-21T04:26:14.004Z,14.30
2023-04-21T04:28:41.229Z,10.00
2023-04-21T04:31:08.072Z,8.60
2023-04-21T04:33:37.540Z,12.80
2023-04-21T04:36:07.185Z,13.53
2023-04-21T04:38:35.603Z,9.63
2023-04-21T04:41:05.164Z,9.53
2023-04-21T04:43:36.869Z,10.60
2023-04-21T04:46:03.896Z,9.67
2023-04-21T04:48:30.671Z,11.50
2023-04-21T04:50:57.655Z,12.37
2023-04-21T04:53:26.577Z,10.30
2023-04-21T04:55:55.964Z,12.57
2023-04-21T04:58:22.697Z,13.50
2023-04-21T05:00:52.033Z,14.97
2023-04-21T05:03:21.124Z,10.10
2023-04-21T05:05:48.104Z,11.87
2023-04-21T05:08:17.237Z,10.27
2023-04-21T05:10:44.847Z,14.10
2023-04-21T05:13:11.603Z,11.63
2023-04-21T05:15:40.554Z,12.47
2023-04-21T05:18:09.506Z,12.43
2023-04-21T05:20:38.739Z,10.87
2023-04-21T05:23:05.519Z,12.27
2023-04-21T05:25:34.899Z,16.20
2023-04-21T05:28:01.670Z,11.20
2023-04-21T05:30:28.395Z,11.47
2023-04-21T05:32:55.273Z,14.03
2023-04-21T05:35:22.074Z,12.17
2023-04-21T05:37:48.852Z,8.23
2023-04-21T05:40:15.638Z,19.73
2023-04-21T05:42:44.932Z,11.47
2023-04-21T05:45:13.840Z,14.07
2023-04-21T05:47:42.859Z,12.47
2023-04-21T05:50:10.472Z,12.63
2023-04-21T05:52:39.476Z,12.37
2023-04-21T05:55:06.808Z,12.43
2023-04-21T05:57:33.529Z,11.50
2023-04-21T06:00:00.302Z,14.07
2023-04-21T06:02:27.229Z,12.63
2023-04-21T06:04:56.753Z,14.47
2023-04-21T06:07:25.927Z,14.17
2023-04-21T06:09:52.756Z,8.63
2023-04-21T06:12:19.571Z,17.30
2023-04-21T06:14:48.463Z,10.80
2023-04-21T06:17:25.616Z,11.67
2023-04-21T06:19:53.385Z,11.80
2023-04-21T06:22:23.060Z,11.33
2023-04-21T06:24:52.273Z,13.37
2023-04-21T06:27:19.063Z,10.00
2023-04-21T06:29:48.315Z,11.03
2023-04-21T06:32:17.364Z,12.20
2023-04-21T06:34:44.115Z,10.80
2023-04-21T06:37:10.945Z,9.73
2023-04-21T06:39:37.685Z,12.60
2023-04-21T06:42:04.446Z,18.00
2023-04-21T06:44:32.429Z,11.47
2023-04-21T06:46:59.372Z,10.93
2023-04-21T06:49:26.158Z,12.80
2023-04-21T06:51:55.648Z,10.50
2023-04-21T06:54:24.717Z,8.53
2023-04-21T06:56:51.539Z,10.00
2023-04-21T06:59:18.685Z,11.37
2023-04-21T07:01:45.781Z,13.83
2023-04-21T07:04:12.608Z,10.57
2023-04-21T07:06:43.510Z,14.37
2023-04-21T07:09:12.567Z,11.87
2023-04-21T07:11:39.332Z,10.30
2023-04-21T07:14:08.463Z,12.10
2023-04-21T07:16:35.353Z,14.87
2023-04-21T07:19:04.731Z,17.60
2023-04-21T07:21:32.217Z,14.57
2023-04-21T07:23:59.102Z,8.97
2023-04-21T07:26:28.032Z,14.60
2023-04-21T07:28:55.557Z,11.77
2023-04-21T07:31:22.369Z,13.03
2023-04-21T07:33:49.229Z,12.83
2023-04-21T07:36:16.061Z,10.97
2023-04-21T07:38:43.543Z,11.30
2023-04-21T07:41:11.990Z,7.60
2023-04-21T07:43:39.586Z,9.83
2023-04-21T07:46:09.720Z,9.63
2023-04-21T07:48:36.535Z,7.50
2023-04-21T07:51:03.616Z,8.37
2023-04-21T07:53:31.204Z,9.83
2023-04-21T07:55:58.306Z,13.80
2023-04-21T07:58:27.579Z,8.47
2023-04-21T08:00:56.597Z,7.43
2023-04-21T08:03:24.569Z,12.33
2023-04-21T08:05:56.746Z,10.87
2023-04-21T08:08:26.033Z,7.23
2023-04-21T08:10:53.353Z,7.13
2023-04-21T08:13:21.697Z,7.77
2023-04-21T08:15:48.517Z,14.40
2023-04-21T08:18:18.147Z,6.83
2023-04-21T08:20:48.975Z,9.07
2023-04-21T08:23:15.821Z,6.70
2023-04-21T08:25:42.698Z,4.63
2023-04-21T08:28:11.591Z,5.80
2023-04-21T08:30:38.609Z,9.10
2023-04-21T08:33:08.633Z,5.93
2023-04-21T08:35:36.512Z,4.07
2023-04-21T08:38:03.533Z,5.73
2023-04-21T08:40:33.543Z,6.13
2023-04-21T08:43:00.371Z,14.37
2023-04-21T08:45:28.248Z,3.63
2023-04-21T08:47:55.842Z,5.97
2023-04-21T08:50:22.669Z,7.10
2023-04-21T08:52:49.464Z,5.50
2023-04-21T08:55:16.263Z,8.27
2023-04-21T08:57:43.012Z,6.40
2023-04-21T09:00:10.290Z,10.73
2023-04-21T09:03:00.828Z,6.70
2023-04-21T09:05:40.631Z,5.90
2023-04-21T09:08:13.413Z,6.10
2023-04-21T09:10:49.398Z,5.20
2023-04-21T09:13:17.746Z,6.43
2023-04-21T09:15:46.042Z,5.53
2023-04-21T09:18:21.149Z,5.77
2023-04-21T09:20:49.903Z,5.47
2023-04-21T09:23:19.182Z,8.33
2023-04-21T09:25:46.091Z,6.30
2023-04-21T09:28:15.376Z,9.47
2023-04-21T09:30:45.130Z,5.20
2023-04-21T09:33:30.671Z,3.40
2023-04-21T09:36:01.056Z,7.33
2023-04-21T09:38:30.146Z,6.63
2023-04-21T09:40:58.250Z,5.37
2023-04-21T09:43:27.278Z,5.77
2023-04-21T09:45:54.559Z,4.47
2023-04-21T09:48:23.510Z,7.00
2023-04-21T09:51:22.975Z,9.27
2023-04-21T09:53:36.988Z,4.10
2023-04-21T09:56:03.829Z,4.97
2023-04-21T09:58:35.304Z,4.13
2023-04-21T10:01:03.241Z,7.70
2023-04-21T10:03:32.285Z,7.10
2023-04-21T10:05:59.266Z,5.47
2023-04-21T10:08:26.081Z,8.20
2023-04-21T10:10:54.973Z,9.10
2023-04-21T10:13:21.718Z,5.57
2023-04-21T10:15:50.975Z,4.27
2023-04-21T10:18:25.095Z,3.67
2023-04-21T10:20:56.616Z,4.13
2023-04-21T10:23:33.493Z,5.67
2023-04-21T10:26:06.868Z,3.13
2023-04-21T10:28:55.765Z,7.90
2023-04-21T10:31:29.558Z,3.80
2023-04-21T10:34:08.595Z,6.57
2023-04-21T10:36:52.525Z,7.07
2023-04-21T10:39:47.577Z,8.23
2023-04-21T10:42:23.185Z,4.27
2023-04-21T10:44:56.225Z,4.23
2023-04-21T10:47:35.161Z,4.43
2023-04-21T10:50:17.840Z,4.77
2023-04-21T10:52:52.210Z,5.23
2023-04-21T10:55:20.659Z,6.27
2023-04-21T10:57:47.458Z,6.90
2023-04-21T11:00:21.057Z,7.30
2023-04-21T11:03:14.544Z,3.55
2023-04-21T11:05:43.652Z,5.60
2023-04-21T11:08:16.615Z,5.63
2023-04-21T11:10:49.035Z,5.25
2023-04-21T11:13:20.685Z,4.97
2023-04-21T11:16:01.566Z,4.50
2023-04-21T11:18:36.771Z,4.18
2023-04-21T11:21:10.403Z,3.90
2023-04-21T11:23:41.213Z,4.82
2023-04-21T11:26:08.175Z,7.10
2023-04-21T11:28:34.910Z,5.43
2023-04-21T11:31:01.991Z,4.90
2023-04-21T11:33:30.264Z,11.10
2023-04-21T11:35:59.084Z,18.13
2023-04-21T11:38:25.906Z,5.75
2023-04-21T11:40:55.097Z,4.43
2023-04-21T11:43:21.909Z,4.88
2023-04-21T11:45:52.384Z,6.78
2023-04-21T11:48:21.917Z,4.68
2023-04-21T11:50:49.439Z,5.78
2023-04-21T11:53:19.317Z,4.85
2023-04-21T11:55:46.124Z,12.07
2023-04-21T11:58:16.161Z,4.25
2023-04-21T12:00:50.326Z,3.38
2023-04-21T12:03:19.791Z,3.47
2023-04-21T12:05:55.987Z,4.22
2023-04-21T12:08:25.149Z,4.80
2023-04-21T12:10:52.612Z,6.93
2023-04-21T12:13:28.320Z,5.57
2023-04-21T12:15:55.370Z,10.38
2023-04-21T12:18:24.613Z,4.80
2023-04-21T12:20:52.193Z,5.32
2023-04-21T12:23:19.282Z,4.43
2023-04-21T12:25:50.069Z,5.97
2023-04-21T12:28:17.963Z,5.88
2023-04-21T12:30:47.229Z,3.05
2023-04-21T12:33:16.303Z,6.30
2023-04-21T12:35:45.278Z,4.60
2023-04-21T12:38:14.182Z,6.00
2023-04-21T12:40:40.988Z,4.75
2023-04-21T12:43:07.896Z,5.35
2023-04-21T12:45:34.734Z,5.50
2023-04-21T12:48:05.080Z,6.15
2023-04-21T12:50:32.151Z,5.43
2023-04-21T12:52:59.376Z,5.05
2023-04-21T12:55:26.152Z,8.18
2023-04-21T12:57:52.983Z,4.25
2023-04-21T13:00:20.669Z,5.50
2023-04-21T13:02:47.698Z,6.10
2023-04-21T13:05:15.070Z,7.28
2023-04-21T13:07:44.434Z,7.25
2023-04-21T13:10:16.424Z,7.18
2023-04-21T13:12:43.206Z,5.43
2023-04-21T13:15:10.809Z,6.22
2023-04-21T13:17:37.613Z,5.30
2023-04-21T13:20:04.944Z,4.45
2023-04-21T13:22:34.058Z,4.00
2023-04-21T13:25:05.533Z,5.93
2023-04-21T13:27:34.830Z,6.00
2023-04-21T13:30:01.690Z,4.93
2023-04-21T13:32:30.727Z,6.82
2023-04-21T13:34:59.793Z,4.87
2023-04-21T13:37:28.940Z,6.05
2023-04-21T13:40:00.525Z,5.30
2023-04-21T13:42:29.714Z,5.65
2023-04-21T13:44:56.671Z,5.63
2023-04-21T13:47:24.091Z,4.25
2023-04-21T13:49:51.600Z,3.80
2023-04-21T13:52:18.385Z,9.77
2023-04-21T13:54:45.249Z,6.25
2023-04-21T13:57:12.151Z,4.40
2023-04-21T13:59:42.067Z,4.82
2023-04-21T14:02:11.301Z,5.03
2023-04-21T14:04:40.536Z,3.53
2023-04-21T14:07:10.215Z,6.80
2023-04-21T14:09:39.467Z,4.13
2023-04-21T14:12:06.295Z,7.03
2023-04-21T14:17:04.485Z,6.60
2023-04-21T14:19:32.474Z,3.40
2023-04-21T14:21:59.618Z,10.10
2023-04-21T14:24:30.175Z,4.28
2023-04-21T14:26:59.310Z,5.75
2023-04-21T14:29:26.198Z,6.13
2023-04-21T14:31:58.834Z,3.65
2023-04-21T14:34:28.760Z,5.35
2023-04-21T14:36:55.983Z,4.53
2023-04-21T14:39:23.090Z,5.63
2023-04-21T14:41:52.361Z,5.80
2023-04-21T14:44:19.244Z,4.05
2023-04-21T14:46:56.865Z,4.25
2023-04-21T14:49:30.731Z,8.10
2023-04-21T14:51:57.631Z,5.57
2023-04-21T14:54:24.490Z,9.20
2023-04-21T14:57:03.350Z,4.72
2023-04-21T14:59:37.777Z,3.45
2023-04-21T15:02:04.735Z,5.22
2023-04-21T15:04:33.894Z,5.35
2023-04-21T15:07:01.848Z,4.57
2023-04-21T15:09:31.257Z,5.38
2023-04-21T15:11:58.097Z,7.25
2023-04-21T15:14:24.968Z,3.80
2023-04-21T15:16:52.082Z,4.13
2023-04-21T15:19:18.859Z,5.03
2023-04-21T15:21:45.798Z,5.97
2023-04-21T15:24:12.589Z,6.32
2023-04-21T15:26:40.282Z,3.83
2023-04-21T15:29:07.261Z,4.20
2023-04-21T15:31:34.170Z,4.73
2023-04-21T15:34:01.141Z,6.33
2023-04-21T15:36:31.175Z,6.87
2023-04-21T15:39:00.192Z,5.23
2023-04-21T15:41:29.623Z,7.70
2023-04-21T15:43:56.522Z,3.30
2023-04-21T15:46:26.018Z,9.93
2023-04-21T15:48:52.787Z,4.03
2023-04-21T15:51:21.798Z,6.00
2023-04-21T15:53:49.378Z,4.47
2023-04-21T15:56:16.768Z,8.20
2023-04-21T15:58:43.682Z,7.57
2023-04-21T16:01:10.501Z,5.47
2023-04-21T16:03:37.964Z,5.00
2023-04-21T16:06:07.778Z,4.43
2023-04-21T16:08:34.659Z,5.07
2023-04-21T16:11:01.611Z,8.13
2023-04-21T16:13:28.725Z,6.67
2023-04-21T16:15:55.642Z,8.00
2023-04-21T16:18:22.635Z,5.80
2023-04-21T16:20:49.412Z,4.37
2023-04-21T16:23:16.163Z,6.50
2023-04-21T16:25:43.215Z,7.40
2023-04-21T16:28:11.487Z,7.73
2023-04-21T16:30:44.010Z,7.53
2023-04-21T16:33:14.588Z,6.53
2023-04-21T16:35:41.695Z,4.93
2023-04-21T16:38:11.187Z,7.53
2023-04-21T16:40:37.983Z,4.43
2023-04-21T16:43:09.404Z,4.50
2023-04-21T16:45:36.306Z,8.67
2023-04-21T16:48:03.214Z,6.57
2023-04-21T16:50:32.225Z,6.40
2023-04-21T16:53:01.265Z,8.60
2023-04-21T16:55:31.453Z,3.37
2023-04-21T16:58:00.780Z,6.33
2023-04-21T17:00:30.384Z,5.20
2023-04-21T17:02:57.739Z,6.03
2023-04-21T17:05:24.774Z,8.53
2023-04-21T17:07:51.582Z,6.97
2023-04-21T17:10:18.478Z,5.03
2023-04-21T17:12:46.228Z,4.70
2023-04-21T17:15:13.295Z,5.93
2023-04-21T17:17:44.783Z,6.73
2023-04-21T17:20:15.281Z,7.77
2023-04-21T17:22:42.266Z,6.60
2023-04-21T17:25:09.942Z,8.63
2023-04-21T17:27:40.777Z,7.27
2023-04-21T17:30:09.279Z,6.13
2023-04-21T17:32:37.090Z,6.53
2023-04-21T17:35:05.763Z,6.47
2023-04-21T17:37:33.619Z,12.20
2023-04-21T17:40:03.236Z,9.10
2023-04-21T17:42:30.532Z,8.90
2023-04-21T17:44:59.792Z,6.80
2023-04-21T17:47:28.773Z,7.20
2023-04-21T17:49:55.988Z,6.30
2023-04-21T17:52:24.938Z,9.87
2023-04-21T17:54:51.672Z,6.00
2023-04-21T17:57:18.423Z,9.40
2023-04-21T17:59:47.617Z,5.67
2023-04-21T18:02:14.579Z,8.93
2023-04-21T18:04:41.805Z,7.80
2023-04-21T18:07:08.824Z,7.83
2023-04-21T18:09:35.658Z,12.20
2023-04-21T18:12:04.586Z,6.23
2023-04-21T18:14:31.740Z,13.50
2023-04-21T18:16:58.528Z,6.00
2023-04-21T18:19:25.274Z,5.20
2023-04-21T18:21:52.012Z,5.43
2023-04-21T18:24:23.501Z,7.40
2023-04-21T18:26:51.399Z,11.27
2023-04-21T18:29:20.264Z,12.23
2023-04-21T18:31:51.740Z,10.60
2023-04-21T18:34:18.598Z,11.97
2023-04-21T18:36:45.562Z,8.67
2023-04-21T18:39:12.290Z,11.87
2023-04-21T18:41:39.145Z,8.13
2023-04-21T18:44:05.901Z,5.77
2023-04-21T18:46:35.588Z,9.53
2023-04-21T18:49:02.442Z,7.83
2023-04-21T18:51:31.355Z,16.40
2023-04-21T18:54:00.590Z,10.80
2023-04-21T18:56:31.416Z,7.33
2023-04-21T18:58:58.823Z,8.17
2023-04-21T19:01:25.778Z,6.83
2023-04-21T19:03:57.723Z,12.17
2023-04-21T19:06:24.605Z,7.53
2023-04-21T19:08:52.746Z,9.87
2023-04-21T19:11:19.547Z,9.30
2023-04-21T19:13:48.523Z,10.10
2023-04-21T19:16:17.601Z,7.20
2023-04-21T19:18:47.371Z,8.73
2023-04-21T19:21:16.734Z,10.57
2023-04-21T19:23:45.748Z,13.20
2023-04-21T19:26:16.465Z,11.67
2023-04-21T19:28:43.393Z,9.60
2023-04-21T19:31:10.260Z,10.60
2023-04-21T19:33:39.422Z,11.17
2023-04-21T19:36:06.660Z,12.77
2023-04-21T19:38:36.235Z,11.73
2023-04-21T19:41:02.986Z,11.57
2023-04-21T19:43:31.966Z,14.30
2023-04-21T19:45:58.829Z,8.80
2023-04-21T19:48:25.976Z,12.17
2023-04-21T19:50:54.896Z,20.47
2023-04-21T19:53:24.075Z,15.83
2023-04-21T19:55:52.478Z,12.00
2023-04-21T19:58:32.128Z,13.00
2023-04-21T20:01:08.499Z,17.67
2023-04-21T20:03:35.584Z,17.93
2023-04-21T20:06:04.911Z,12.83
2023-04-21T20:08:31.858Z,12.47
2023-04-21T20:10:58.630Z,15.90
2023-04-21T20:13:25.695Z,10.93
2023-04-21T20:15:55.723Z,14.50
2023-04-21T20:18:22.566Z,12.73
2023-04-21T20:20:49.466Z,13.17
2023-04-21T20:23:16.435Z,14.70
2023-04-21T20:25:45.740Z,12.57
2023-04-21T20:28:12.895Z,15.43
2023-04-21T20:30:42.363Z,16.83
2023-04-21T20:33:09.474Z,13.07
2023-04-21T20:35:39.440Z,15.93
2023-04-21T20:38:12.119Z,15.60
2023-04-21T20:40:39.450Z,15.13
2023-04-21T20:43:06.356Z,15.60
2023-04-21T20:45:33.726Z,19.97
2023-04-21T20:48:02.763Z,14.17
2023-04-21T20:50:31.873Z,17.57
2023-04-21T20:53:00.784Z,12.40
2023-04-21T20:55:27.582Z,15.13
2023-04-21T20:57:54.421Z,14.93
2023-04-21T21:00:23.672Z,21.00
2023-04-21T21:02:50.747Z,10.77
2023-04-21T21:05:18.015Z,18.40
2023-04-21T21:07:45.066Z,13.33
2023-04-21T21:10:11.897Z,18.77
2023-04-21T21:12:38.701Z,17.07
2023-04-21T21:15:06.001Z,17.90
2023-04-21T21:17:35.083Z,19.30
2023-04-21T21:20:04.327Z,16.83
2023-04-21T21:22:31.095Z,15.00
2023-04-21T21:24:57.854Z,14.13
2023-04-21T21:27:24.827Z,16.00
2023-04-21T21:29:51.599Z,13.37
2023-04-21T21:32:20.916Z,17.13
2023-04-21T21:34:52.163Z,21.20
2023-04-21T21:37:21.478Z,17.27
2023-04-21T21:39:48.415Z,16.43
2023-04-21T21:42:15.384Z,16.43
2023-04-21T21:44:42.145Z,18.73
2023-04-21T21:47:11.177Z,19.77
2023-04-21T21:49:38.508Z,18.60
2023-04-21T21:52:08.252Z,21.77
2023-04-21T21:54:37.400Z,20.17
2023-04-21T21:57:04.331Z,17.53
2023-04-21T21:59:31.230Z,19.97
2023-04-21T22:01:58.170Z,17.27
2023-04-21T22:04:27.354Z,19.23
2023-04-21T22:06:54.177Z,20.13
2023-04-21T22:09:21.299Z,16.97
2023-04-21T22:11:50.474Z,19.87
2023-04-21T22:14:23.360Z,16.80
2023-04-21T22:16:52.566Z,18.70
2023-04-21T22:19:19.700Z,19.00
2023-04-21T22:21:46.487Z,14.50
2023-04-21T22:24:13.370Z,17.33
2023-04-21T22:26:40.341Z,14.27
2023-04-21T22:29:07.192Z,16.83
2023-04-21T22:31:34.072Z,18.63
2023-04-21T22:34:03.967Z,15.47
2023-04-21T22:36:32.340Z,16.10
2023-04-21T22:39:01.476Z,19.00
2023-04-21T22:41:30.472Z,18.20
2023-04-21T22:43:57.232Z,15.40
2023-04-21T22:46:24.012Z,17.97
2023-04-21T22:48:54.175Z,21.63
2023-04-21T22:51:21.070Z,16.03
2023-04-21T22:53:47.823Z,23.03
2023-04-21T22:56:17.066Z,15.03
2023-04-21T22:58:43.944Z,17.47
2023-04-21T23:01:10.772Z,17.97
2023-04-21T23:03:37.658Z,15.70
2023-04-21T23:06:07.287Z,16.70
2023-04-21T23:08:34.037Z,15.50
2023-04-21T23:11:00.943Z,16.37
2023-04-21T23:13:27.730Z,18.37
2023-04-21T23:15:57.132Z,17.07
2023-04-21T23:18:23.952Z,13.67
2023-04-21T23:20:50.742Z,13.50
2023-04-21T23:23:19.719Z,13.70
2023-04-21T23:25:46.564Z,12.37
2023-04-21T23:28:13.314Z,11.60
2023-04-21T23:30:40.384Z,15.77
2023-04-21T23:33:07.265Z,10.83
2023-04-21T23:35:34.021Z,11.33
2023-04-21T23:38:00.788Z,11.83
2023-04-21T23:40:27.592Z,12.83
2023-04-21T23:42:56.604Z,10.80
2023-04-21T23:45:25.857Z,19.17
2023-04-21T23:47:55.057Z,9.77
2023-04-21T23:50:21.806Z,11.70
2023-04-21T23:52:51.075Z,17.23
2023-04-21T23:55:18.019Z,13.47
2023-04-21T23:57:46.053Z,12.37
